| time (UTC) | temp F | wind direction | speed MPH | gust MPH | rain 1hr in | rain 24hr in | rain mn in | humidity % | barometer mb |
| 20260906002532 | 48 | 121 | 3.0 | 4.0 | 0.00 | 0.17 | 0.00 | 87 | 1024.2 |
| 20260906001526 | 48 | 124 | 2.0 | 4.0 | 0.00 | 0.17 | 0.00 | 87 | 1023.9 |
| 20260906000521 | 48 | 120 | 3.0 | 7.0 | 0.00 | 0.17 | 0.00 | 87 | 1023.9 |
| 20260905235516 | 49 | 107 | 3.0 | 4.0 | 0.00 | 0.17 | 0.00 | 87 | 1023.9 |
| 20260905234531 | 49 | 119 | 3.0 | 4.0 | 0.00 | 0.17 | 0.00 | 86 | 1023.7 |
| 20260905233525 | 49 | 106 | 1.0 | 2.0 | 0.00 | 0.17 | 0.00 | 87 | 1023.8 |
| 20260905232519 | 48 | 130 | 2.0 | 4.0 | 0.00 | 0.17 | 0.00 | 86 | 1023.6 |
| 20260905231534 | 48 | 120 | 2.0 | 3.0 | 0.00 | 0.17 | 0.00 | 84 | 1023.6 |
| 20260905230551 | 49 | 129 | 2.0 | 3.0 | 0.00 | 0.17 | 0.00 | 84 | 1023.5 |
| 20260905225523 | 49 | 108 | 1.0 | 2.0 | 0.00 | 0.17 | 0.00 | 84 | 1023.4 |
| 20260905224537 | 49 | 105 | 3.0 | 4.0 | 0.00 | 0.17 | 0.00 | 84 | 1023.4 |
| 20260905223530 | 49 | 130 | 3.0 | 6.0 | 0.00 | 0.17 | 0.00 | 83 | 1023.4 |
| 20260905222544 | 50 | 130 | 2.0 | 3.0 | 0.00 | 0.17 | 0.00 | 82 | 1023.3 |
| 20260905221518 | 50 | 115 | 1.0 | 2.0 | 0.00 | 0.17 | 0.00 | 81 | 1023.3 |
| 20260905220533 | 50 | 123 | 2.0 | 3.0 | 0.00 | 0.17 | 0.00 | 81 | 1023.1 |
| 20260905215527 | 51 | 125 | 1.0 | 2.0 | 0.00 | 0.17 | 0.17 | 79 | 1023.2 |
| 20260905214641 | 51 | 130 | 3.0 | 3.0 | 0.00 | 0.17 | 0.17 | 78 | 1023.1 |
| 20260905213516 | 52 | 107 | 1.0 | 2.0 | 0.00 | 0.17 | 0.17 | 78 | 1023.1 |
| 20260905212530 | 52 | 334 | 1.0 | 2.0 | 0.00 | 0.17 | 0.17 | 78 | 1023.0 |
| 20260905211525 | 53 | 179 | 1.0 | 2.0 | 0.00 | 0.17 | 0.17 | 75 | 1022.9 |
| 20260905210519 | 53 | 160 | 2.0 | 3.0 | 0.00 | 0.17 | 0.17 | 71 | 1022.8 |
| 20260905205533 | 55 | 168 | 2.0 | 3.0 | 0.00 | 0.17 | 0.17 | 68 | 1022.7 |
| 20260905204528 | 57 | 208 | 1.0 | 2.0 | 0.00 | 0.17 | 0.17 | 65 | 1022.7 |
| 20260905203522 | 58 | 267 | 0.0 | 1.0 | 0.00 | 0.17 | 0.17 | 63 | 1022.6 |
| 20260905202517 | 59 | 284 | 2.0 | 3.0 | 0.00 | 0.17 | 0.17 | 61 | 1022.3 |
| 20260905201532 | 59 | 263 | 1.0 | 2.0 | 0.00 | 0.17 | 0.17 | 59 | 1022.2 |
| 20260905200547 | 60 | 265 | 3.0 | 4.0 | 0.00 | 0.17 | 0.17 | 59 | 1022.2 |
| 20260905195521 | 60 | 263 | 3.0 | 4.0 | 0.00 | 0.17 | 0.17 | 58 | 1022.1 |
| 20260905194535 | 61 | 264 | 4.0 | 7.0 | 0.00 | 0.17 | 0.17 | 57 | 1021.9 |
| 20260905193531 | 61 | 255 | 4.0 | 7.0 | 0.00 | 0.17 | 0.17 | 56 | 1021.8 |
| 20260905192525 | 62 | 265 | 5.0 | 8.0 | 0.00 | 0.17 | 0.17 | 55 | 1021.7 |
| 20260905191540 | 62 | 263 | 5.0 | 9.0 | 0.00 | 0.17 | 0.17 | 55 | 1021.7 |
| 20260905190555 | 63 | 265 | 5.0 | 9.0 | 0.00 | 0.17 | 0.17 | 53 | 1021.7 |
| 20260905185529 | 63 | 264 | 5.0 | 8.0 | 0.00 | 0.17 | 0.17 | 53 | 1021.5 |
| 20260905184523 | 63 | 271 | 5.0 | 9.0 | 0.00 | 0.17 | 0.17 | 53 | 1021.4 |
| 20260905183517 | 64 | 268 | 5.0 | 8.0 | 0.00 | 0.17 | 0.17 | 52 | 1021.2 |
| 20260905182552 | 65 | 264 | 7.0 | 10.0 | 0.00 | 0.17 | 0.17 | 50 | 1021.1 |
| 20260905181526 | 65 | 267 | 8.0 | 19.0 | 0.00 | 0.17 | 0.17 | 51 | 1021.0 |
| 20260905180521 | 65 | 269 | 6.0 | 13.0 | 0.00 | 0.17 | 0.17 | 53 | 1020.9 |
| 20260905175535 | 66 | 267 | 4.0 | 8.0 | 0.00 | 0.17 | 0.17 | 51 | 1020.6 |
| 20260905174530 | 67 | 281 | 7.0 | 11.0 | 0.00 | 0.17 | 0.17 | 50 | 1020.5 |
| 20260905173524 | 68 | 276 | 8.0 | 13.0 | 0.00 | 0.17 | 0.17 | 48 | 1020.3 |
| 20260905172519 | 69 | 285 | 8.0 | 16.0 | 0.00 | 0.17 | 0.17 | 47 | 1019.9 |
| 20260905171534 | 70 | 277 | 12.0 | 26.0 | 0.00 | 0.17 | 0.17 | 46 | 1019.9 |
| 20260905170529 | 70 | 282 | 10.0 | 21.0 | 0.00 | 0.17 | 0.17 | 46 | 1019.8 |
| 20260905165524 | 70 | 282 | 10.0 | 21.0 | 0.00 | 0.17 | 0.17 | 43 | 1019.5 |
| 20260905164538 | 71 | 261 | 13.0 | 27.0 | 0.00 | 0.17 | 0.17 | 43 | 1019.2 |
| 20260905163533 | 71 | 273 | 12.0 | 25.0 | 0.00 | 0.17 | 0.17 | 43 | 1019.2 |
| 20260905162528 | 72 | 267 | 15.0 | 29.0 | 0.00 | 0.17 | 0.17 | 41 | 1019.0 |
| 20260905161523 | 72 | 263 | 22.0 | 38.0 | 0.00 | 0.17 | 0.17 | 42 | 1018.7 |
| 20260905160519 | 72 | 270 | 15.0 | 31.0 | 0.00 | 0.17 | 0.17 | 42 | 1018.7 |
| 20260905155533 | 72 | 278 | 14.0 | 24.0 | 0.00 | 0.17 | 0.17 | 44 | 1018.6 |
| 20260905154547 | 72 | 268 | 12.0 | 19.0 | 0.00 | 0.17 | 0.17 | 44 | 1018.7 |
| 20260905153522 | 73 | 267 | 11.0 | 21.0 | 0.00 | 0.17 | 0.17 | 45 | 1018.6 |
| 20260905152617 | 72 | 261 | 8.0 | 13.0 | 0.00 | 0.17 | 0.17 | 47 | 1018.6 |
| 20260905151552 | 72 | 250 | 12.0 | 26.0 | 0.00 | 0.17 | 0.17 | 47 | 1018.5 |
| 20260905150547 | 72 | 264 | 9.0 | 16.0 | 0.00 | 0.17 | 0.17 | 47 | 1018.4 |
| 20260905145522 | 72 | 256 | 9.0 | 17.0 | 0.00 | 0.17 | 0.17 | 47 | 1018.5 |
| 20260905144515 | 73 | 257 | 13.0 | 30.0 | 0.00 | 0.17 | 0.17 | 46 | 1018.6 |
| 20260905143531 | 73 | 256 | 16.0 | 30.0 | 0.00 | 0.17 | 0.17 | 46 | 1018.7 |
| 20260905142526 | 74 | 251 | 12.0 | 24.0 | 0.00 | 0.17 | 0.17 | 47 | 1018.6 |
| 20260905141520 | 74 | 237 | 12.0 | 19.0 | 0.00 | 0.17 | 0.17 | 47 | 1018.5 |
| 20260905140535 | 74 | 252 | 11.0 | 18.0 | 0.00 | 0.17 | 0.17 | 48 | 1018.5 |
| 20260905135550 | 73 | 240 | 13.0 | 26.0 | 0.00 | 0.17 | 0.17 | 48 | 1018.5 |
| 20260905134525 | 72 | 264 | 17.0 | 38.0 | 0.00 | 0.17 | 0.17 | 47 | 1018.5 |
| 20260905133519 | 73 | 258 | 11.0 | 25.0 | 0.00 | 0.17 | 0.17 | 47 | 1018.7 |
| 20260905132533 | 73 | 246 | 10.0 | 23.0 | 0.00 | 0.17 | 0.17 | 47 | 1018.7 |
| 20260905131549 | 72 | 247 | 12.0 | 22.0 | 0.00 | 0.17 | 0.17 | 50 | 1018.7 |
| 20260905130523 | 72 | 251 | 14.0 | 23.0 | 0.00 | 0.17 | 0.17 | 51 | 1018.8 |
| 20260905125538 | 72 | 250 | 13.0 | 22.0 | 0.00 | 0.17 | 0.17 | 51 | 1018.8 |
| 20260905124533 | 72 | 240 | 13.0 | 23.0 | 0.00 | 0.17 | 0.17 | 53 | 1018.7 |
| 20260905123528 | 72 | 237 | 10.0 | 22.0 | 0.00 | 0.17 | 0.17 | 53 | 1018.7 |
| 20260905122542 | 72 | 249 | 13.0 | 24.0 | 0.00 | 0.17 | 0.17 | 53 | 1018.9 |
| 20260905121516 | 70 | 246 | 7.0 | 19.0 | 0.00 | 0.17 | 0.17 | 59 | 1018.9 |
| 20260905120551 | 71 | 247 | 11.0 | 26.0 | 0.00 | 0.17 | 0.17 | 59 | 1019.1 |
| 20260905115526 | 71 | 253 | 9.0 | 14.0 | 0.00 | 0.17 | 0.17 | 60 | 1019.1 |
| 20260905114521 | 70 | 238 | 12.0 | 25.0 | 0.00 | 0.17 | 0.17 | 62 | 1019.3 |
| 20260905113535 | 69 | 242 | 8.0 | 18.0 | 0.00 | 0.17 | 0.17 | 63 | 1019.2 |
| 20260905112530 | 69 | 241 | 9.0 | 21.0 | 0.00 | 0.17 | 0.17 | 62 | 1019.3 |
| 20260905111545 | 68 | 252 | 10.0 | 17.0 | 0.00 | 0.17 | 0.17 | 63 | 1019.3 |
| 20260905110519 | 68 | 253 | 9.0 | 17.0 | 0.00 | 0.17 | 0.17 | 64 | 1019.4 |
| 20260905105534 | 68 | 252 | 8.0 | 16.0 | 0.00 | 0.17 | 0.17 | 64 | 1019.4 |
| 20260905104529 | 67 | 253 | 10.0 | 21.0 | 0.00 | 0.17 | 0.17 | 65 | 1019.5 |
| 20260905103523 | 68 | 253 | 13.0 | 24.0 | 0.00 | 0.17 | 0.17 | 65 | 1019.6 |
| 20260905102618 | 68 | 237 | 12.0 | 23.0 | 0.00 | 0.17 | 0.17 | 65 | 1019.5 |
| 20260905101532 | 68 | 251 | 10.0 | 36.0 | 0.00 | 0.17 | 0.17 | 66 | 1019.4 |
| 20260905100528 | 68 | 228 | 9.0 | 16.0 | 0.00 | 0.17 | 0.17 | 68 | 1019.4 |
| 20260905095521 | 67 | 249 | 10.0 | 18.0 | 0.00 | 0.17 | 0.17 | 67 | 1019.5 |
| 20260905094515 | 67 | 232 | 9.0 | 16.0 | 0.00 | 0.17 | 0.17 | 67 | 1019.6 |
| 20260905093531 | 68 | 242 | 8.0 | 14.0 | 0.00 | 0.17 | 0.17 | 68 | 1019.6 |
| 20260905092526 | 68 | 242 | 9.0 | 18.0 | 0.00 | 0.17 | 0.17 | 67 | 1019.6 |
| 20260905091521 | 67 | 232 | 8.0 | 14.0 | 0.00 | 0.17 | 0.17 | 71 | 1019.6 |
| 20260905090535 | 66 | 244 | 7.0 | 15.0 | 0.00 | 0.17 | 0.17 | 71 | 1019.6 |
| 20260905085529 | 66 | 237 | 8.0 | 13.0 | 0.00 | 0.17 | 0.17 | 74 | 1019.5 |
| 20260905084523 | 65 | 254 | 7.0 | 13.0 | 0.00 | 0.17 | 0.17 | 74 | 1019.4 |
| 20260905083538 | 65 | 236 | 7.0 | 14.0 | 0.00 | 0.17 | 0.17 | 74 | 1019.4 |
| 20260905082552 | 65 | 236 | 9.0 | 17.0 | 0.00 | 0.17 | 0.17 | 75 | 1019.5 |
| 20260905081527 | 63 | 248 | 8.0 | 15.0 | 0.00 | 0.17 | 0.17 | 78 | 1019.4 |
| 20260905080521 | 62 | 244 | 6.0 | 11.0 | 0.00 | 0.17 | 0.17 | 80 | 1019.4 |
| 20260905075516 | 62 | 246 | 7.0 | 13.0 | 0.00 | 0.17 | 0.17 | 79 | 1019.4 |
| 20260905074531 | 61 | 245 | 8.0 | 16.0 | 0.00 | 0.17 | 0.17 | 81 | 1019.3 |
| 20260905073526 | 61 | 252 | 8.0 | 17.0 | 0.00 | 0.17 | 0.17 | 79 | 1019.2 |
| 20260905072520 | 61 | 248 | 5.0 | 11.0 | 0.00 | 0.17 | 0.17 | 79 | 1019.0 |
| 20260905071534 | 61 | 249 | 4.0 | 9.0 | 0.00 | 0.17 | 0.17 | 80 | 1018.8 |
| 20260905070529 | 60 | 243 | 3.0 | 8.0 | 0.00 | 0.17 | 0.17 | 81 | 1019.0 |
| 20260905065523 | 59 | 222 | 2.0 | 6.0 | 0.00 | 0.17 | 0.17 | 83 | 1018.9 |
| 20260905064517 | 59 | 151 | 1.0 | 3.0 | 0.00 | 0.17 | 0.17 | 82 | 1018.9 |
| 20260905063532 | 59 | 110 | 3.0 | 4.0 | 0.00 | 0.17 | 0.17 | 84 | 1018.8 |
| 20260905062527 | 57 | 121 | 4.0 | 7.0 | 0.00 | 0.17 | 0.17 | 87 | 1019.0 |
| 20260905061521 | 55 | 124 | 5.0 | 7.0 | 0.00 | 0.17 | 0.17 | 88 | 1018.8 |
| 20260905060516 | 55 | 117 | 6.0 | 9.0 | 0.00 | 0.17 | 0.17 | 88 | 1018.7 |
| 20260905055531 | 55 | 113 | 7.0 | 11.0 | 0.00 | 0.17 | 0.17 | 89 | 1018.5 |
| 20260905054526 | 55 | 109 | 7.0 | 11.0 | 0.00 | 0.17 | 0.17 | 89 | 1018.4 |
| 20260905053521 | 55 | 116 | 7.0 | 14.0 | 0.00 | 0.17 | 0.17 | 89 | 1018.1 |
| 20260905052535 | 55 | 83 | 4.0 | 9.0 | 0.00 | 0.17 | 0.17 | 88 | 1017.9 |
| 20260905051530 | 55 | 315 | 2.0 | 7.0 | 0.00 | 0.17 | 0.17 | 88 | 1017.7 |
| 20260905050524 | 55 | 253 | 3.0 | 6.0 | 0.02 | 0.17 | 0.17 | 87 | 1017.4 |
| 20260905045520 | 56 | 205 | 3.0 | 7.0 | 0.03 | 0.17 | 0.17 | 88 | 1017.2 |
| 20260905044534 | 57 | 234 | 5.0 | 8.0 | 0.05 | 0.17 | 0.17 | 88 | 1017.3 |
| 20260905043549 | 57 | 229 | 5.0 | 13.0 | 0.06 | 0.17 | 0.17 | 89 | 1017.2 |
| 20260905042524 | 58 | 221 | 7.0 | 13.0 | 0.07 | 0.17 | 0.17 | 89 | 1016.7 |
| 20260905041519 | 58 | 199 | 6.0 | 14.0 | 0.10 | 0.17 | 0.17 | 90 | 1016.3 |
| 20260905040533 | 58 | 181 | 4.0 | 11.0 | 0.10 | 0.16 | 0.16 | 89 | 1016.3 |
| 20260905035528 | 59 | 197 | 1.0 | 3.0 | 0.09 | 0.14 | 0.14 | 88 | 1016.9 |
| 20260905034523 | 59 | 230 | 2.0 | 4.0 | 0.07 | 0.12 | 0.12 | 88 | 1017.2 |
| 20260905033537 | 59 | 254 | 5.0 | 10.0 | 0.07 | 0.11 | 0.11 | 88 | 1017.3 |
| 20260905032533 | 59 | 237 | 4.0 | 8.0 | 0.08 | 0.10 | 0.10 | 88 | 1017.4 |
| 20260905031527 | 59 | 203 | 1.0 | 2.0 | 0.06 | 0.07 | 0.07 | 87 | 1017.0 |
| 20260905030521 | 60 | 227 | 1.0 | 3.0 | 0.05 | 0.06 | 0.06 | 86 | 1017.2 |
| 20260905025515 | 60 | 222 | 2.0 | 3.0 | 0.05 | 0.06 | 0.06 | 85 | 1017.0 |
| 20260905024550 | 60 | 216 | 2.0 | 3.0 | 0.05 | 0.05 | 0.05 | 83 | 1016.9 |
| 20260905023525 | 61 | 310 | 0.0 | 1.0 | 0.04 | 0.04 | 0.04 | 83 | 1016.5 |
| 20260905022520 | 60 | 296 | 3.0 | 6.0 | 0.02 | 0.02 | 0.02 | 85 | 1017.0 |
| 20260905021534 | 61 | 194 | 3.0 | 4.0 | 0.01 | 0.01 | 0.01 | 83 | 1016.0 |
| 20260905020529 | 61 | 160 | 1.0 | 3.0 | 0.01 | 0.01 | 0.01 | 81 | 1015.4 |
| 20260905015523 | 62 | 111 | 1.0 | 1.0 | 0.00 | 0.00 | 0.00 | 78 | 1015.3 |
| 20260905014518 | 63 | 156 | 1.0 | 2.0 | 0.00 | 0.00 | 0.00 | 73 | 1015.3 |
| 20260905013552 | 64 | 250 | 2.0 | 4.0 | 0.00 | 0.00 | 0.00 | 70 | 1015.4 |
| 20260905012526 | 65 | 277 | 3.0 | 7.0 | 0.00 | 0.00 | 0.00 | 66 | 1015.1 |
| 20260905011520 | 65 | 292 | 6.0 | 13.0 | 0.00 | 0.00 | 0.00 | 65 | 1015.0 |
| 20260905010535 | 65 | 248 | 5.0 | 18.0 | 0.00 | 0.00 | 0.00 | 66 | 1014.9 |
| 20260905005529 | 65 | 269 | 1.0 | 3.0 | 0.00 | 0.00 | 0.00 | 67 | 1014.9 |
| 20260905004523 | 65 | 303 | 2.0 | 4.0 | 0.00 | 0.00 | 0.00 | 66 | 1015.1 |
| 20260905003517 | 65 | 295 | 3.0 | 7.0 | 0.00 | 0.00 | 0.00 | 66 | 1014.8 |